Time;durP1;ratioP1;P1;durP2;ratioP2;P2;SDS_P1;SDS_P2;PMS_P1;PMS_P2;Temp;Humidity;BMP_temperature;BMP_pressure;BME280_temperature;BME280_humidity;BME280_pressure;Samples;Min_cycle;Max_cycle;Signal;HPM_P1;HPM_P2
2023/07/14 00:01:55;;;;;;;9.65;5.63;;;15.10;99.90;;;-144.05;85.80;56863.69;5038413;28;20055;-83
2023/07/14 00:04:34;;;;;;;7.85;5.40;;;15.10;99.90;;;-144.05;85.82;56895.56;5056542;28;20025;-82
2023/07/14 00:07:03;;;;;;;10.77;5.88;;;15.00;99.90;;;-144.05;85.91;56859.47;5056655;28;20100;-85
2023/07/14 00:09:32;;;;;;;7.80;5.40;;;15.00;99.90;;;-144.05;86.00;56878.56;5056356;28;20182;-82
2023/07/14 00:11:59;;;;;;;11.60;6.05;;;15.00;99.90;;;-144.05;86.44;56874.31;5038383;28;20373;-83
2023/07/14 00:14:26;;;;;;;8.35;5.55;;;15.00;99.90;;;-144.05;86.50;56870.06;5038275;28;20035;-83
2023/07/14 00:16:53;;;;;;;8.55;5.30;;;14.90;99.90;;;-144.05;86.62;56855.22;5055999;28;20025;-84
2023/07/14 00:19:20;;;;;;;10.77;5.75;;;14.90;99.90;;;-144.05;86.37;56878.56;5037932;28;20119;-83
2023/07/14 00:21:49;;;;;;;8.25;4.82;;;14.90;99.90;;;-144.05;86.21;56887.06;5037419;28;20049;-83
2023/07/14 00:24:20;;;;;;;9.10;4.78;;;14.80;99.90;;;-144.05;86.10;56891.31;5056346;28;20029;-82
2023/07/14 00:26:56;;;;;;;7.18;5.40;;;14.80;99.90;;;-144.05;85.97;56859.47;5064535;28;20391;-82
2023/07/14 00:29:35;;;;;;;7.45;5.25;;;14.80;99.90;;;-144.05;85.75;56870.06;5075037;28;20557;-80
2023/07/14 00:32:10;;;;;;;10.43;5.57;;;14.80;99.90;;;-144.05;85.50;56878.56;5057897;28;20440;-82
2023/07/14 00:34:36;;;;;;;10.60;5.18;;;14.80;99.90;;;-144.05;85.37;56887.06;5057408;28;20035;-82
2023/07/14 00:37:02;;;;;;;11.13;6.38;;;14.70;99.90;;;-144.05;85.89;56853.09;5076100;28;20028;-81
2023/07/14 00:39:27;;;;;;;9.75;5.20;;;14.70;99.90;;;-144.05;85.62;56876.44;5074764;28;20062;-85
2023/07/14 00:41:54;;;;;;;9.30;5.07;;;14.70;99.90;;;-144.05;85.71;56872.19;5076075;28;20652;-84
2023/07/14 00:44:20;;;;;;;10.32;5.43;;;14.70;99.90;;;-144.05;85.42;56857.34;5074640;28;20123;-82
2023/07/14 00:46:46;;;;;;;10.35;5.15;;;14.70;99.90;;;-144.05;85.41;56863.69;5057283;28;20052;-86
2023/07/14 00:49:32;;;;;;;7.13;5.35;;;14.60;99.90;;;-144.05;85.52;56857.34;5075805;28;20040;-86
2023/07/14 00:52:13;;;;;;;7.70;5.07;;;14.60;99.90;;;-144.05;85.76;56861.56;5058367;28;20036;-84
2023/07/14 00:54:51;;;;;;;9.68;5.95;;;14.60;99.90;;;-144.05;85.75;56876.44;5058899;28;20021;-83
2023/07/14 00:57:25;;;;;;;6.78;5.28;;;14.50;99.90;;;-144.05;85.85;56857.34;5076534;28;20064;-81
2023/07/14 00:59:58;;;;;;;9.77;5.22;;;14.50;99.90;;;-144.05;85.84;56844.59;5076230;28;20094;-83
2023/07/14 01:02:24;;;;;;;10.13;5.75;;;14.50;99.90;;;-144.05;86.37;56882.81;5075421;28;20063;-84
2023/07/14 01:05:07;;;;;;;9.07;6.35;;;14.40;99.90;;;-144.05;86.34;56872.19;5058490;28;20445;-83
2023/07/14 01:07:45;;;;;;;8.40;5.68;;;14.40;99.90;;;-144.05;86.42;56865.81;5076893;28;20048;-83
2023/07/14 01:10:22;;;;;;;7.57;5.78;;;14.40;99.90;;;-144.05;86.51;56891.31;5077363;28;20047;-83
2023/07/14 01:12:58;;;;;;;9.13;5.80;;;14.40;99.90;;;-144.05;86.62;56874.31;5077480;28;20058;-83
2023/07/14 01:15:23;;;;;;;8.20;5.55;;;14.40;99.90;;;-144.05;86.01;56865.81;5076591;28;20170;-82
2023/07/14 01:17:51;;;;;;;10.52;5.97;;;14.40;99.90;;;-144.05;85.98;56870.06;5060396;28;20445;-85
2023/07/14 01:20:18;;;;;;;9.35;5.65;;;14.50;99.90;;;-144.05;85.59;56872.19;5076551;28;20029;-83
2023/07/14 01:23:29;;;;;;;9.95;4.93;;;14.40;99.90;;;-144.05;85.11;56874.31;5060317;28;20252;-84
2023/07/14 01:26:33;;;;;;;6.93;5.40;;;14.50;99.90;;;-144.05;84.79;56861.56;5078632;28;20048;-82
2023/07/14 01:29:01;;;;;;;9.38;5.03;;;14.50;99.90;;;-144.05;84.39;56853.09;5086145;28;20029;-85
2023/07/14 01:31:27;;;;;;;5.43;4.68;;;14.50;99.90;;;-144.05;84.18;56878.56;5078597;28;20046;-82
2023/07/14 01:33:53;;;;;;;8.52;4.80;;;14.50;99.90;;;-144.05;84.09;56865.81;5076708;28;20420;-83
2023/07/14 01:36:24;;;;;;;11.77;5.25;;;14.50;99.90;;;-144.05;83.90;56882.81;5060078;28;20029;-83
2023/07/14 01:38:53;;;;;;;10.27;5.00;;;14.50;99.90;;;-144.05;84.02;56857.34;5077609;28;20055;-84
2023/07/14 01:41:20;;;;;;;7.50;4.63;;;14.50;99.90;;;-144.05;84.16;56874.31;5078466;28;20060;-84
2023/07/14 01:43:48;;;;;;;7.85;4.78;;;14.50;99.90;;;-144.05;84.13;56884.94;5078516;28;20035;-84
2023/07/14 01:46:20;;;;;;;8.02;4.95;;;14.50;99.90;;;-144.05;84.25;56889.19;5077870;28;20167;-84
2023/07/14 01:49:20;;;;;;;7.15;4.47;;;14.40;99.90;;;-144.05;84.17;56870.06;5078000;28;20050;-84
2023/07/14 01:51:49;;;;;;;5.90;4.32;;;14.40;99.90;;;-144.05;83.86;56904.06;5077542;28;20017;-83
2023/07/14 01:54:35;;;;;;;6.13;4.15;;;14.50;99.90;;;-144.05;83.64;56882.81;5058939;28;20025;-84
2023/07/14 01:57:12;;;;;;;5.97;4.25;;;14.50;99.90;;;-144.05;83.37;56874.31;5079031;28;20024;-84
2023/07/14 01:59:48;;;;;;;6.35;4.22;;;14.50;99.90;;;-144.05;83.14;56891.31;5089436;28;20036;-81
2023/07/14 02:02:32;;;;;;;5.45;3.70;;;14.40;99.90;;;-144.05;83.36;56906.19;5096161;28;20036;-84
2023/07/14 02:05:07;;;;;;;9.18;4.03;;;14.40;99.90;;;-144.05;83.42;56878.56;5093778;28;20092;-82
2023/07/14 02:07:33;;;;;;;7.60;4.45;;;14.40;99.90;;;-144.05;83.71;56859.47;5094485;28;20032;-82
2023/07/14 02:09:59;;;;;;;9.18;4.47;;;14.40;99.90;;;-144.05;84.04;56874.31;5075867;28;20024;-83
2023/07/14 02:12:31;;;;;;;8.68;4.90;;;14.40;99.90;;;-144.05;84.34;56872.19;5057483;28;20032;-84
2023/07/14 02:15:12;;;;;;;9.55;4.40;;;14.30;99.90;;;-144.05;84.15;56878.56;5073110;28;20028;-83
2023/07/14 02:17:39;;;;;;;5.68;3.95;;;14.30;99.90;;;-144.05;84.21;56882.81;5055176;28;20526;-82
2023/07/14 02:20:20;;;;;;;7.57;4.43;;;14.20;99.90;;;-144.05;85.01;56859.47;5054815;28;20038;-83
2023/07/14 02:22:49;;;;;;;8.95;4.63;;;14.20;99.90;;;-144.05;85.01;56874.31;5055191;28;20033;-82
2023/07/14 02:25:20;;;;;;;6.97;4.43;;;14.20;99.90;;;-144.05;85.16;56859.47;5073630;28;20024;-82
2023/07/14 02:27:46;;;;;;;8.02;4.47;;;14.20;99.90;;;-144.05;85.46;56884.94;5036504;28;20115;-84
2023/07/14 02:30:21;;;;;;;11.15;5.35;;;14.10;99.90;;;-144.05;85.66;56878.56;5035441;28;20112;-82
2023/07/14 02:32:58;;;;;;;10.27;4.88;;;14.10;99.90;;;-144.05;85.59;56878.56;5053853;28;20037;-82
2023/07/14 02:35:52;;;;;;;6.72;4.30;;;14.10;99.90;;;-144.05;86.16;56884.94;5055510;28;20036;-82
2023/07/14 02:38:19;;;;;;;6.07;4.03;;;14.00;99.90;;;-144.05;86.45;56887.06;5062641;28;20503;-81
2023/07/14 02:41:22;;;;;;;8.23;4.78;;;14.00;99.90;;;-144.05;86.78;56891.31;5045779;28;20036;-82
2023/07/14 02:43:56;;;;;;;5.22;4.72;;;13.90;99.90;;;-144.05;86.81;56878.56;5048092;28;20029;-81
2023/07/14 02:46:55;;;;;;;9.70;5.20;;;13.90;99.90;;;-144.05;86.88;56882.81;5043934;28;20021;-83
2023/07/14 02:49:22;;;;;;;7.65;5.40;;;13.80;99.90;;;-144.05;87.02;56859.47;5054623;28;20037;-83
2023/07/14 02:51:47;;;;;;;9.15;5.55;;;13.80;99.90;;;-144.05;87.25;56880.69;5054334;28;20099;-82
2023/07/14 02:54:13;;;;;;;7.95;5.40;;;13.70;99.90;;;-144.05;87.65;56872.19;5054221;28;20079;-83
2023/07/14 02:56:39;;;;;;;7.80;5.10;;;13.70;99.90;;;-144.05;87.95;56887.06;5054557;28;20060;-84
2023/07/14 02:59:11;;;;;;;8.73;5.03;;;13.70;99.90;;;-144.05;87.97;56878.56;5052635;28;20057;-83
2023/07/14 03:01:39;;;;;;;8.43;4.85;;;13.60;99.90;;;-144.05;88.18;56891.31;5036591;28;20033;-82
2023/07/14 03:04:05;;;;;;;8.55;4.72;;;13.60;99.90;;;-144.05;88.21;56882.81;5054642;28;20360;-82
2023/07/14 03:06:31;;;;;;;8.52;5.47;;;13.50;99.90;;;-144.05;88.30;56895.56;5036708;28;20032;-84
2023/07/14 03:08:57;;;;;;;10.02;5.60;;;13.50;99.90;;;-144.05;88.48;56908.31;5036955;28;20059;-83
2023/07/14 03:11:23;;;;;;;10.10;5.85;;;13.50;99.90;;;-144.05;88.53;56876.44;5055421;28;20064;-81
2023/07/14 03:13:51;;;;;;;10.43;6.03;;;13.50;99.90;;;-144.05;88.79;56887.06;5055433;28;20024;-85
2023/07/14 03:16:17;;;;;;;8.02;5.60;;;13.50;99.90;;;-144.05;88.79;56887.06;5055884;28;20047;-84
2023/07/14 03:18:43;;;;;;;8.02;5.35;;;13.50;99.90;;;-144.05;88.83;56874.31;5056381;28;20501;-84
2023/07/14 03:21:09;;;;;;;10.90;6.05;;;13.50;99.90;;;-144.05;88.81;56870.06;5056222;28;20036;-83
2023/07/14 03:23:35;;;;;;;10.30;5.60;;;13.50;99.90;;;-144.05;89.13;56887.06;5056486;28;20044;-83
2023/07/14 03:26:06;;;;;;;8.55;5.20;;;13.50;99.90;;;-144.05;89.09;56870.06;5062794;28;20016;-83
2023/07/14 03:28:36;;;;;;;8.63;6.38;;;13.50;99.90;;;-144.05;89.29;56876.44;5064316;28;20187;-84
2023/07/14 03:31:03;;;;;;;10.70;5.75;;;13.40;99.90;;;-144.05;89.22;56889.19;5057130;28;20383;-82
2023/07/14 03:33:33;;;;;;;8.13;5.55;;;13.40;99.90;;;-144.05;89.58;56895.56;5078909;28;20021;-83
2023/07/14 03:36:12;;;;;;;8.38;6.65;;;13.40;99.90;;;-144.05;89.66;56878.56;5079067;28;20030;-85
2023/07/14 03:38:45;;;;;;;9.45;5.95;;;13.40;99.90;;;-144.05;89.78;56891.31;5059995;28;20029;-81
2023/07/14 03:41:14;;;;;;;8.93;5.97;;;13.40;99.90;;;-144.05;89.91;56876.44;5078652;28;20043;-84
2023/07/14 03:43:40;;;;;;;11.00;5.85;;;13.40;99.90;;;-144.05;89.76;56863.69;5061497;28;20033;-86
2023/07/14 03:46:07;;;;;;;8.13;5.28;;;13.30;99.90;;;-144.05;89.94;56889.19;5078274;28;20086;-84
2023/07/14 03:48:34;;;;;;;7.07;4.93;;;13.30;99.90;;;-144.05;89.97;56887.06;5079555;28;20060;-85
2023/07/14 03:51:03;;;;;;;10.45;5.60;;;13.30;99.90;;;-144.05;90.14;56878.56;5079774;28;20496;-83
2023/07/14 03:53:29;;;;;;;7.82;5.50;;;13.20;99.90;;;-144.05;90.12;56895.56;5062347;28;20032;-86
2023/07/14 03:55:55;;;;;;;8.00;5.40;;;13.30;99.90;;;-144.05;90.09;56895.56;5078455;28;20028;-82
2023/07/14 03:58:21;;;;;;;6.50;5.78;;;13.30;99.90;;;-144.05;90.25;56882.81;5057794;28;20025;-83
2023/07/14 04:00:47;;;;;;;11.68;5.80;;;13.20;99.90;;;-144.05;90.38;56870.06;5058357;28;20569;-83
2023/07/14 04:03:15;;;;;;;13.73;5.65;;;13.20;99.90;;;-144.05;90.42;56870.06;5058162;28;20071;-85
2023/07/14 04:05:47;;;;;;;9.82;5.40;;;13.30;99.90;;;-144.05;90.33;56878.56;5076247;28;20029;-84
2023/07/14 04:08:14;;;;;;;8.70;5.35;;;13.20;99.90;;;-144.05;90.35;56882.81;5077135;28;20021;-84
2023/07/14 04:10:39;;;;;;;8.50;5.65;;;13.20;99.90;;;-144.05;90.37;56893.44;5059703;28;20091;-84
2023/07/14 04:13:05;;;;;;;10.77;6.25;;;13.20;99.90;;;-144.05;90.32;56891.31;5059729;28;20065;-82
2023/07/14 04:15:31;;;;;;;8.93;5.40;;;13.30;99.90;;;-144.05;90.36;56870.06;5076025;28;20056;-83
2023/07/14 04:17:57;;;;;;;7.60;5.43;;;13.30;99.90;;;-144.05;90.27;56893.44;5076838;28;20024;-83
2023/07/14 04:20:23;;;;;;;6.93;5.55;;;13.30;99.90;;;-144.05;90.37;56904.06;5076524;28;20480;-82
2023/07/14 04:22:48;;;;;;;10.20;6.45;;;13.40;99.90;;;-144.05;90.32;56893.44;5058890;28;20035;-82
2023/07/14 04:25:14;;;;;;;9.20;5.70;;;13.50;99.90;;;-144.05;90.34;56874.31;5058084;28;20070;-83
2023/07/14 04:27:40;;;;;;;9.68;6.10;;;13.60;99.90;;;-144.05;89.96;56874.31;5040382;28;20048;-82
2023/07/14 04:30:08;;;;;;;8.63;5.22;;;13.70;99.90;;;-144.05;89.76;56882.81;5054924;28;20037;-83
2023/07/14 04:32:35;;;;;;;11.27;6.10;;;13.90;99.90;;;-144.05;89.33;56880.69;5056132;28;20036;-86
2023/07/14 04:35:01;;;;;;;10.55;6.45;;;13.90;99.90;;;-144.05;89.16;56867.94;5055730;28;20029;-81
2023/07/14 04:37:27;;;;;;;7.95;5.68;;;14.00;99.90;;;-144.05;88.80;56861.56;5059710;28;20052;-83
2023/07/14 04:39:52;;;;;;;10.10;4.63;;;14.10;99.90;;;-144.05;87.80;56876.44;5058786;28;20393;-83
2023/07/14 04:42:19;;;;;;;8.57;4.90;;;14.30;99.90;;;-144.05;87.73;56863.69;5059674;28;20701;-83
2023/07/14 04:44:45;;;;;;;6.93;4.25;;;14.40;99.90;;;-144.05;86.88;56870.06;5041398;28;20160;-84
2023/07/14 04:47:10;;;;;;;6.20;4.60;;;14.60;99.90;;;-144.05;85.71;56884.94;5056869;28;20052;-83
2023/07/14 04:49:37;;;;;;;9.70;4.68;;;14.80;99.90;;;-144.05;84.60;56887.06;5039650;28;20124;-83
2023/07/14 04:52:03;;;;;;;9.70;4.25;;;14.90;99.90;;;-144.05;83.36;56908.31;5055296;28;20032;-82
2023/07/14 04:54:29;;;;;;;6.95;4.13;;;15.10;99.90;;;-144.05;82.34;56876.44;5039602;28;20430;-83
2023/07/14 04:56:55;;;;;;;6.75;3.95;;;15.20;99.90;;;-144.05;81.47;56891.31;5056610;28;20025;-82
2023/07/14 04:59:21;;;;;;;8.02;3.38;;;15.30;99.90;;;-144.05;80.80;56872.19;5057480;28;20451;-82
2023/07/14 05:01:47;;;;;;;6.53;3.60;;;15.40;99.90;;;-144.05;79.93;56863.69;5056667;28;20029;-84
2023/07/14 05:04:13;;;;;;;8.00;3.85;;;15.50;99.90;;;-144.05;79.84;56887.06;5058564;28;20070;-83
2023/07/14 05:06:39;;;;;;;11.73;4.40;;;15.60;99.90;;;-144.05;79.33;56876.44;5058749;28;20043;-85
2023/07/14 05:09:05;;;;;;;14.88;4.20;;;15.60;99.90;;;-144.05;79.67;56865.81;5040706;28;20021;-83
2023/07/14 05:11:31;;;;;;;9.00;4.35;;;15.70;99.90;;;-144.05;79.60;56895.56;5058167;28;20377;-85
2023/07/14 05:13:57;;;;;;;7.10;3.33;;;15.80;99.90;;;-144.05;79.49;56887.06;5041155;28;20021;-84
2023/07/14 05:16:23;;;;;;;7.70;3.55;;;15.90;99.90;;;-144.05;78.85;56874.31;5059918;28;20029;-84
2023/07/14 05:18:48;;;;;;;10.57;3.78;;;15.90;99.90;;;-144.05;78.77;56891.31;5059678;28;20025;-82
2023/07/14 05:21:14;;;;;;;12.15;4.00;;;15.90;99.90;;;-144.05;78.75;56893.44;5058858;28;20056;-83
2023/07/14 05:23:41;;;;;;;10.65;3.67;;;15.90;99.90;;;-144.05;78.21;56872.19;5060686;28;20039;-83
2023/07/14 05:26:07;;;;;;;10.20;3.85;;;16.00;99.90;;;-144.05;77.91;56884.94;5074137;28;20039;-83
2023/07/14 05:28:33;;;;;;;8.00;3.80;;;16.10;99.90;;;-144.05;77.41;56880.69;5080079;28;20024;-83
2023/07/14 05:31:00;;;;;;;7.68;3.40;;;16.20;99.90;;;-144.05;77.11;56882.81;5077156;28;20115;-82
2023/07/14 05:33:25;;;;;;;6.32;3.00;;;16.30;99.90;;;-144.05;76.52;56897.69;5078181;28;20100;-85
2023/07/14 05:35:51;;;;;;;7.55;3.75;;;16.40;99.90;;;-144.05;75.80;56889.19;5079222;28;20535;-83
2023/07/14 05:38:17;;;;;;;5.90;2.95;;;16.50;99.90;;;-144.05;75.46;56906.19;5060503;28;20035;-80
2023/07/14 05:40:51;;;;;;;5.60;3.08;;;16.60;99.90;;;-144.05;75.04;56891.31;5060602;28;20031;-85
2023/07/14 05:43:17;;;;;;;8.65;3.60;;;16.70;99.90;;;-144.05;74.73;56874.31;5078510;28;20441;-82
2023/07/14 05:45:47;;;;;;;7.18;2.90;;;16.80;99.90;;;-144.05;75.13;56887.06;5079069;28;20024;-82
2023/07/14 05:48:17;;;;;;;8.73;3.20;;;16.80;99.90;;;-144.05;74.26;56897.69;5077627;28;20080;-84
2023/07/14 05:50:45;;;;;;;7.82;3.15;;;16.90;99.90;;;-144.05;73.88;56904.06;5076975;28;20050;-83
2023/07/14 05:53:12;;;;;;;7.63;3.60;;;17.00;99.90;;;-144.05;73.69;56895.56;5076635;28;20058;-83
2023/07/14 05:55:38;;;;;;;8.77;3.58;;;17.00;99.90;;;-144.05;73.12;56914.69;5075391;28;20024;-85
2023/07/14 05:58:04;;;;;;;7.97;2.95;;;17.20;99.90;;;-144.05;72.59;56901.94;5077185;28;20507;-86
2023/07/14 06:00:29;;;;;;;9.55;3.60;;;17.30;99.90;;;-144.05;71.80;56887.06;5077434;28;20029;-83
2023/07/14 06:02:55;;;;;;;7.30;2.97;;;17.30;99.90;;;-144.05;72.09;56880.69;5079144;28;20036;-86
2023/07/14 06:05:21;;;;;;;7.18;3.38;;;17.30;99.90;;;-144.05;71.80;56897.69;5080928;28;20032;-82
2023/07/14 06:07:47;;;;;;;10.38;2.75;;;17.30;99.90;;;-144.05;71.40;56878.56;5079587;28;20028;-83
2023/07/14 06:10:14;;;;;;;8.18;3.03;;;17.30;99.90;;;-144.05;72.14;56908.31;5079743;28;20024;-83
2023/07/14 06:12:40;;;;;;;10.25;3.03;;;17.40;99.90;;;-144.05;70.66;56901.94;5078293;28;20029;-85
2023/07/14 06:15:07;;;;;;;7.70;3.25;;;17.60;99.90;;;-144.05;71.30;56895.56;5080267;28;20102;-85
2023/07/14 06:17:34;;;;;;;10.30;3.40;;;17.60;99.90;;;-144.05;71.10;56891.31;5080498;28;20447;-84
2023/07/14 06:20:00;;;;;;;9.63;3.25;;;17.70;99.90;;;-144.05;70.14;56897.69;5079603;28;20052;-84
2023/07/14 06:22:26;;;;;;;7.03;2.97;;;17.80;99.90;;;-144.05;69.29;56891.31;5062759;28;20033;-83
2023/07/14 06:24:51;;;;;;;7.55;2.95;;;18.10;99.90;;;-144.05;67.17;56878.56;5073088;28;20020;-83
2023/07/14 06:27:18;;;;;;;6.43;3.20;;;18.50;99.90;;;-144.05;66.13;56908.31;5078233;28;20017;-85
2023/07/14 06:29:45;;;;;;;5.60;2.60;;;18.80;99.90;;;-144.05;65.01;56927.41;5040605;28;20032;-81
2023/07/14 06:32:11;;;;;;;6.93;2.70;;;19.20;99.90;;;-144.05;64.72;56933.78;5058162;28;20028;-84
2023/07/14 06:34:37;;;;;;;10.27;3.00;;;19.30;99.90;;;-144.05;63.99;56908.31;5058966;28;20025;-84
2023/07/14 06:37:03;;;;;;;5.97;2.83;;;19.50;99.90;;;-144.05;63.25;56923.19;5058879;28;20021;-84
2023/07/14 06:39:31;;;;;;;7.10;2.78;;;19.70;99.90;;;-144.05;63.51;56927.41;5058307;28;20115;-85
2023/07/14 06:41:56;;;;;;;6.57;2.58;;;19.90;99.90;;;-144.05;63.11;56927.41;5058057;28;20061;-84
2023/07/14 06:44:22;;;;;;;5.78;2.30;;;19.90;99.90;;;-144.05;61.84;56893.44;5058663;28;20456;-82
2023/07/14 06:46:48;;;;;;;6.28;2.50;;;19.90;99.90;;;-144.05;60.01;56918.94;5058000;28;20044;-85
2023/07/14 06:49:14;;;;;;;5.95;2.72;;;20.10;99.90;;;-144.05;60.86;56912.56;5039733;28;20582;-83
2023/07/14 06:51:40;;;;;;;6.53;2.58;;;20.20;99.90;;;-144.05;59.57;56912.56;5057145;28;20025;-85
2023/07/14 06:54:06;;;;;;;5.95;2.33;;;20.30;99.90;;;-144.05;59.47;56944.41;5058368;28;20181;-86
2023/07/14 06:56:32;;;;;;;4.57;2.20;;;20.50;99.90;;;-144.05;58.74;56929.53;5058944;28;20369;-85
2023/07/14 06:58:58;;;;;;;4.78;2.35;;;20.50;99.90;;;-144.05;58.13;56910.44;5056751;28;20033;-84
2023/07/14 07:01:25;;;;;;;5.40;2.33;;;20.70;99.90;;;-144.05;57.89;56938.03;5057468;28;20052;-83
2023/07/14 07:03:51;;;;;;;3.50;1.80;;;21.00;99.90;;;-144.05;56.30;56935.91;5057247;28;20058;-84
2023/07/14 07:06:17;;;;;;;6.28;2.55;;;21.20;99.90;;;-144.05;56.26;56923.19;5061843;28;20108;-87
2023/07/14 07:08:45;;;;;;;7.20;2.20;;;21.20;99.90;;;-144.05;55.47;56933.78;5062377;28;20020;-84
2023/07/14 07:11:13;;;;;;;7.05;2.35;;;21.10;99.90;;;-144.05;55.58;56938.03;5061151;28;20029;-84
2023/07/14 07:13:40;;;;;;;3.80;2.38;;;21.10;99.90;;;-144.05;54.46;56948.66;5062065;28;20031;-84
2023/07/14 07:16:06;;;;;;;7.78;2.47;;;21.40;99.90;;;-144.05;52.56;56921.06;5062690;28;20040;-85
2023/07/14 07:18:33;;;;;;;5.30;2.03;;;21.40;99.90;;;-144.05;52.81;56955.03;5063179;28;20445;-85
2023/07/14 07:21:00;;;;;;;5.20;2.13;;;21.60;99.90;;;-144.05;52.74;56972.03;5062135;28;20492;-84
2023/07/14 07:23:26;;;;;;;4.53;1.92;;;21.80;99.90;;;-144.05;52.07;56961.41;5075497;28;20033;-81
2023/07/14 07:25:55;;;;;;;4.40;1.92;;;22.10;99.90;;;-144.05;51.78;56967.78;5064541;28;20406;-87
2023/07/14 07:28:23;;;;;;;3.08;1.83;;;22.30;99.90;;;-144.05;51.74;57001.75;5062113;28;20021;-88
2023/07/14 07:30:49;;;;;;;5.05;2.40;;;22.60;99.90;;;-144.05;49.63;56976.28;5062402;28;20484;-84
2023/07/14 07:33:16;;;;;;;4.70;2.00;;;22.60;99.90;;;-144.05;49.64;56969.91;5060767;28;20036;-83
2023/07/14 07:35:42;;;;;;;5.10;1.92;;;22.50;99.90;;;-144.05;49.91;56961.41;5060082;28;20238;-83
2023/07/14 07:38:12;;;;;;;8.25;2.50;;;22.40;99.90;;;-144.05;51.32;56974.16;5059846;28;20082;-84
2023/07/14 07:40:41;;;;;;;5.75;2.08;;;22.30;99.90;;;-144.05;50.01;56955.03;5059972;28;20029;-83
2023/07/14 07:43:07;;;;;;;4.05;1.85;;;22.40;99.90;;;-144.05;48.71;56967.78;5042283;28;20119;-83
2023/07/14 07:45:33;;;;;;;8.40;2.10;;;22.30;99.90;;;-144.05;49.83;56961.41;5060534;28;20125;-84
2023/07/14 07:47:59;;;;;;;6.10;2.05;;;22.00;99.90;;;-144.05;50.53;56957.16;5059334;28;20045;-83
2023/07/14 07:50:26;;;;;;;5.55;1.80;;;22.20;99.90;;;-144.05;48.51;56972.03;5041408;28;20029;-85
2023/07/14 07:52:53;;;;;;;6.07;2.22;;;22.60;99.90;;;-144.05;48.64;56950.78;5059226;28;20368;-84
2023/07/14 07:55:19;;;;;;;3.75;1.52;;;22.60;99.90;;;-144.05;48.13;56963.53;5058466;28;20031;-85
2023/07/14 07:57:47;;;;;;;2.35;1.67;;;22.80;99.90;;;-144.05;47.30;57001.75;5056777;28;20037;-85
2023/07/14 08:00:15;;;;;;;5.45;1.90;;;23.00;99.90;;;-144.05;46.63;56961.41;5057198;28;20400;-81
2023/07/14 08:02:43;;;;;;;3.25;1.70;;;22.80;99.90;;;-144.05;46.34;56993.25;5057658;28;20497;-82
2023/07/14 08:05:14;;;;;;;4.32;1.75;;;23.10;99.90;;;-144.05;45.82;56999.63;5056155;28;20033;-81
2023/07/14 08:07:41;;;;;;;3.47;1.63;;;23.40;99.90;;;-144.05;44.74;56974.16;5057897;28;20029;-82
2023/07/14 08:10:08;;;;;;;5.90;2.20;;;23.50;99.90;;;-144.05;43.99;56984.78;5056133;28;20032;-81
2023/07/14 08:12:34;;;;;;;3.50;1.90;;;23.40;99.90;;;-144.05;44.59;57001.75;5059061;28;20032;-85
2023/07/14 08:15:00;;;;;;;5.60;2.20;;;23.10;99.90;;;-144.05;46.13;56978.41;5062080;28;20071;-87
2023/07/14 08:17:31;;;;;;;4.57;1.80;;;22.80;99.90;;;-144.05;44.24;56965.66;5061220;28;20111;-85
2023/07/14 08:19:59;;;;;;;6.65;1.90;;;22.90;99.90;;;-144.05;45.55;56972.03;5042208;28;20479;-81
2023/07/14 08:22:26;;;;;;;3.20;1.60;;;22.70;99.90;;;-144.05;46.28;56974.16;5060387;28;20036;-83
2023/07/14 08:24:56;;;;;;;5.80;1.95;;;22.80;99.90;;;-144.05;45.56;56991.13;5060295;28;20071;-82
2023/07/14 08:27:21;;;;;;;4.10;1.60;;;23.00;99.90;;;-144.05;45.50;56989.00;5075721;28;20044;-81
2023/07/14 08:29:47;;;;;;;5.55;1.83;;;23.10;99.90;;;-144.05;44.30;56965.66;5080194;28;20101;-81
2023/07/14 08:32:15;;;;;;;4.70;1.65;;;23.20;99.90;;;-144.05;45.64;56984.78;5078549;28;20035;-81
2023/07/14 08:34:41;;;;;;;4.25;1.67;;;23.30;99.90;;;-144.05;44.83;56989.00;5079112;28;20085;-86
2023/07/14 08:37:07;;;;;;;4.28;1.80;;;23.60;99.90;;;-144.05;44.26;56986.91;5061906;28;20552;-83
2023/07/14 08:39:33;;;;;;;4.55;2.03;;;23.80;99.90;;;-144.05;42.98;57006.00;5060859;28;20537;-85
2023/07/14 08:42:33;;;;;;;5.72;2.10;;;24.00;99.90;;;-144.05;42.70;57035.75;5061838;28;20102;-87
2023/07/14 08:45:37;;;;;;;6.13;1.77;;;24.10;99.90;;;-144.05;42.12;57014.50;5080736;28;20173;-85
2023/07/14 08:48:37;;;;;;;2.85;1.48;;;24.50;99.90;;;-144.05;41.91;56993.25;5081304;28;20048;-84
2023/07/14 08:51:17;;;;;;;7.72;2.10;;;24.20;99.90;;;-144.05;42.13;56989.00;5062551;28;20472;-86
2023/07/14 08:53:58;;;;;;;3.03;1.83;;;24.20;99.90;;;-144.05;43.17;57016.63;5079551;28;20099;-87
2023/07/14 08:56:35;;;;;;;3.95;1.77;;;24.10;99.90;;;-144.05;42.29;56997.50;5061519;28;20036;-81
2023/07/14 08:59:02;;;;;;;4.55;2.03;;;24.00;99.90;;;-144.05;41.97;57018.75;5079470;28;20028;-84
2023/07/14 09:01:53;;;;;;;5.18;2.00;;;24.30;99.90;;;-144.05;41.58;56993.25;5079478;28;20021;-84
2023/07/14 09:04:29;;;;;;;4.63;1.83;;;24.70;99.90;;;-144.05;40.37;57042.13;5079420;28;20032;-84
2023/07/14 09:06:55;;;;;;;;;;;25.00;99.90;;;-144.05;40.58;57065.47;5079950;28;20104;-87
2023/07/14 09:09:39;;;;;;;6.63;1.88;;;25.10;99.90;;;-144.05;40.26;57033.63;5079617;28;20395;-83
2023/07/14 09:12:46;;;;;;;4.10;2.10;;;24.60;99.90;;;-144.05;41.63;57018.75;5080931;28;20039;-84
2023/07/14 09:15:26;;;;;;;4.25;2.28;;;24.60;99.90;;;-144.05;41.46;57006.00;5079481;28;20033;-85
2023/07/14 09:18:32;;;;;;;5.88;2.10;;;24.60;99.90;;;-144.05;40.54;57018.75;5079833;28;20046;-85
2023/07/14 09:21:30;;;;;;;5.78;1.95;;;24.70;99.90;;;-144.05;40.39;57020.88;5088146;28;20080;-84
2023/07/14 09:24:33;;;;;;;6.00;1.90;;;24.40;99.90;;;-144.05;40.31;57025.13;5080197;28;20473;-83
2023/07/14 09:26:59;;;;;;;4.28;2.10;;;24.40;99.90;;;-144.05;40.85;57018.75;5079735;28;20111;-84
2023/07/14 09:29:40;;;;;;;6.88;1.92;;;24.60;99.90;;;-144.05;39.67;57025.13;5078771;28;20055;-86
2023/07/14 09:32:42;;;;;;;5.43;1.85;;;24.40;99.90;;;-144.05;39.66;57023.00;5079952;28;20055;-85
2023/07/14 09:35:09;;;;;;;4.78;2.20;;;24.40;99.90;;;-144.05;40.63;57018.75;5079771;28;20039;-86
2023/07/14 09:38:07;;;;;;;5.25;1.90;;;24.20;99.90;;;-144.05;40.98;56986.91;5079193;28;20036;-85
2023/07/14 09:40:39;;;;;;;3.58;1.83;;;23.90;99.90;;;-144.05;42.12;56980.53;5061728;28;20134;-86
2023/07/14 09:43:07;;;;;;;3.65;1.90;;;23.50;99.90;;;-144.05;41.78;56993.25;5079279;28;20070;-84
2023/07/14 09:45:36;;;;;;;6.07;1.70;;;23.50;99.90;;;-144.05;41.50;56955.03;5061583;28;20055;-84
2023/07/14 09:48:15;;;;;;;5.05;2.00;;;23.30;99.90;;;-144.05;42.07;56965.66;5077972;28;20028;-86
2023/07/14 09:51:09;;;;;;;3.03;1.65;;;23.20;99.90;;;-144.05;40.33;56989.00;5079213;28;20043;-85
2023/07/14 09:53:38;;;;;;;5.32;1.85;;;23.20;99.90;;;-144.05;40.90;56967.78;5071371;28;20036;-84
2023/07/14 09:56:20;;;;;;;3.10;1.90;;;23.50;99.90;;;-144.05;39.82;56984.78;5078476;28;20034;-82
2023/07/14 09:59:04;;;;;;;5.82;1.85;;;23.90;99.90;;;-144.05;38.73;57001.75;5078739;28;20502;-84
2023/07/14 10:01:32;;;;;;;4.35;1.92;;;24.10;99.90;;;-144.05;39.60;57016.63;5077277;28;20465;-82
2023/07/14 10:04:17;;;;;;;3.28;1.63;;;24.10;99.90;;;-144.05;40.31;57016.63;5078790;28;20033;-82
2023/07/14 10:06:47;;;;;;;5.55;2.15;;;24.30;99.90;;;-144.05;39.67;57020.88;5079205;28;20029;-84
2023/07/14 10:09:16;;;;;;;6.53;2.08;;;24.00;99.90;;;-144.05;39.47;56986.91;5079813;28;20028;-83
2023/07/14 10:11:50;;;;;;;5.50;2.35;;;23.80;99.90;;;-144.05;40.10;57006.00;5077991;28;20025;-87
2023/07/14 10:14:37;;;;;;;3.47;2.05;;;23.60;99.90;;;-144.05;39.78;56993.25;5078876;28;20038;-87
2023/07/14 10:17:05;;;;;;;3.10;1.90;;;23.50;99.90;;;-144.05;39.81;57003.88;5079057;28;20025;-82
2023/07/14 10:19:51;;;;;;;6.30;1.98;;;23.60;99.90;;;-144.05;40.37;56980.53;5078297;28;20377;-81
2023/07/14 10:22:24;;;;;;;4.95;1.67;;;23.80;99.90;;;-144.05;40.10;56989.00;5079429;28;20107;-87